createdAt,value
2018-06-29T00:00:01.215Z,101455.84
2018-06-29T00:02:30.297Z,101465.03
2018-06-29T00:04:58.802Z,101462.39
2018-06-29T00:07:27.331Z,101458.86
2018-06-29T00:09:56.257Z,101462.80
2018-06-29T00:12:24.686Z,101465.87
2018-06-29T00:14:53.341Z,101468.94
2018-06-29T00:17:22.822Z,101468.88
2018-06-29T00:19:51.230Z,101467.13
2018-06-29T00:22:19.742Z,101465.44
2018-06-29T00:24:49.093Z,101469.40
2018-06-29T00:27:17.521Z,101481.66
2018-06-29T00:29:46.157Z,101473.10
2018-06-29T00:32:14.750Z,101483.88
2018-06-29T00:34:43.281Z,101492.32
2018-06-29T00:37:12.320Z,101481.86
2018-06-29T00:39:41.013Z,101486.02
2018-06-29T00:42:09.425Z,101491.13
2018-06-29T00:44:37.922Z,101490.92
2018-06-29T00:47:06.530Z,101483.16
2018-06-29T00:49:35.037Z,101493.89
2018-06-29T00:52:04.457Z,101485.30
2018-06-29T00:54:33.947Z,101489.10
2018-06-29T00:57:02.374Z,101496.78
2018-06-29T00:59:30.846Z,101491.75
2018-06-29T01:01:59.490Z,101495.55
2018-06-29T01:04:28.001Z,101497.22
2018-06-29T01:06:57.237Z,101496.64
2018-06-29T01:09:25.848Z,101496.52
2018-06-29T01:11:54.281Z,101496.86
2018-06-29T01:14:22.751Z,101506.86
2018-06-29T01:16:51.873Z,101505.88
2018-06-29T01:19:20.393Z,101506.27
2018-06-29T01:21:48.879Z,101502.20
2018-06-29T01:24:17.421Z,101501.69
2018-06-29T01:26:46.227Z,101507.77
2018-06-29T01:29:14.712Z,101503.65
2018-06-29T01:31:43.374Z,101508.28
2018-06-29T01:34:12.337Z,101508.66
2018-06-29T01:36:40.794Z,101512.53
2018-06-29T01:39:10.223Z,101500.68
2018-06-29T01:41:39.238Z,101504.16
2018-06-29T01:44:07.740Z,101507.69
2018-06-29T01:46:36.277Z,101504.55
2018-06-29T01:49:05.110Z,101345.83
2018-06-29T01:51:33.681Z,101509.00
2018-06-29T01:54:02.207Z,101501.15
2018-06-29T01:56:30.699Z,101500.77
2018-06-29T01:59:00.158Z,101507.43
2018-06-29T02:01:29.041Z,101502.17
2018-06-29T02:03:58.529Z,101496.55
2018-06-29T02:06:27.054Z,101497.06
2018-06-29T02:08:55.673Z,101500.16
2018-06-29T02:11:24.137Z,101495.75
2018-06-29T02:13:52.865Z,101496.13
2018-06-29T02:16:21.606Z,101504.80
2018-06-29T02:18:50.341Z,101496.01
2018-06-29T02:21:18.996Z,101504.80
2018-06-29T02:23:48.529Z,101496.01
2018-06-29T02:26:16.949Z,101506.88
2018-06-29T02:28:46.041Z,101495.75
2018-06-29T02:31:14.781Z,101492.61
2018-06-29T02:33:43.197Z,101485.52
2018-06-29T02:36:12.009Z,101484.16
2018-06-29T02:38:40.743Z,101485.39
2018-06-29T02:41:09.491Z,101488.88
2018-06-29T02:43:39.717Z,101486.67
2018-06-29T02:46:08.215Z,101484.04
2018-06-29T02:48:36.709Z,101485.83
2018-06-29T02:51:05.385Z,101482.84
2018-06-29T02:53:33.878Z,101480.20
2018-06-29T02:56:02.325Z,101486.41
2018-06-29T02:58:30.842Z,101482.08
2018-06-29T03:00:59.873Z,101484.28
2018-06-29T03:03:29.184Z,101471.97
2018-06-29T03:05:58.106Z,101470.27
2018-06-29T03:08:27.021Z,101471.63
2018-06-29T03:10:55.461Z,101480.77
2018-06-29T03:13:23.904Z,101473.28
2018-06-29T03:15:52.333Z,101475.88
2018-06-29T03:18:20.770Z,101464.06
2018-06-29T03:20:49.469Z,101471.12
2018-06-29T03:23:17.885Z,101468.52
2018-06-29T03:25:46.527Z,101468.14
2018-06-29T03:28:15.189Z,101472.09
2018-06-29T03:30:43.682Z,101463.77
2018-06-29T03:33:12.126Z,101472.60
2018-06-29T03:35:40.769Z,101467.41
2018-06-29T03:38:10.093Z,101465.30
2018-06-29T03:40:39.156Z,101478.45
2018-06-29T03:43:07.626Z,101472.80
2018-06-29T03:45:37.840Z,101469.36
2018-06-29T03:48:06.281Z,101462.44
2018-06-29T03:50:35.029Z,101464.30
2018-06-29T03:53:03.873Z,101470.03
2018-06-29T03:55:32.317Z,101472.59
2018-06-29T03:58:01.102Z,101473.44
2018-06-29T04:00:29.650Z,101477.77
2018-06-29T04:02:58.132Z,101476.88
2018-06-29T04:05:26.765Z,101467.23
2018-06-29T04:07:55.370Z,101473.36
2018-06-29T04:10:23.854Z,101470.77
2018-06-29T04:12:52.579Z,101480.87
2018-06-29T04:15:21.238Z,101476.96
2018-06-29T04:17:49.714Z,101473.86
2018-06-29T04:20:18.340Z,101483.55
2018-06-29T04:22:47.517Z,101480.57
2018-06-29T04:25:16.006Z,101485.07
2018-06-29T04:27:45.113Z,101480.04
2018-06-29T04:30:14.561Z,101479.84
2018-06-29T04:32:43.609Z,101480.97
2018-06-29T04:35:12.598Z,101490.13
2018-06-29T04:37:41.462Z,101478.05
2018-06-29T04:40:10.106Z,101480.09
2018-06-29T04:42:38.761Z,101481.77
2018-06-29T04:45:07.518Z,101482.05
2018-06-29T04:47:36.645Z,101487.53
2018-06-29T04:50:05.241Z,101489.02
2018-06-29T04:52:33.787Z,101494.47
2018-06-29T04:55:04.198Z,101491.90
2018-06-29T04:57:32.902Z,101488.96
2018-06-29T05:00:01.422Z,101489.52
2018-06-29T05:02:30.590Z,101485.72
2018-06-29T05:04:59.351Z,101491.50
2018-06-29T05:07:27.969Z,101491.13
2018-06-29T05:09:56.529Z,101484.98
2018-06-29T05:12:25.133Z,101489.08
2018-06-29T05:14:53.645Z,101487.39
2018-06-29T05:17:22.069Z,101490.48
2018-06-29T05:19:50.829Z,101490.95
2018-06-29T05:22:19.365Z,101497.92
2018-06-29T05:24:48.219Z,101498.81
2018-06-29T05:27:17.269Z,101511.98
2018-06-29T05:29:46.000Z,101511.86
2018-06-29T05:32:14.437Z,101512.25
2018-06-29T05:34:43.401Z,101515.69
2018-06-29T05:37:12.159Z,101510.31
2018-06-29T05:39:40.641Z,101521.23
2018-06-29T05:42:09.307Z,101517.23
2018-06-29T05:44:38.086Z,101520.81
2018-06-29T05:47:06.570Z,101516.98
2018-06-29T05:49:35.340Z,101515.30
2018-06-29T05:52:03.952Z,101510.11
2018-06-29T05:54:32.373Z,101514.53
2018-06-29T05:57:01.077Z,101519.45
2018-06-29T05:59:29.949Z,101513.24
2018-06-29T06:01:58.423Z,101516.38
2018-06-29T06:04:26.991Z,101517.73
2018-06-29T06:06:55.730Z,101518.16
2018-06-29T06:09:24.193Z,101516.84
2018-06-29T06:11:53.211Z,101520.34
2018-06-29T06:14:21.798Z,101515.09
2018-06-29T06:16:50.493Z,101489.98
2018-06-29T06:19:30.298Z,101526.48
2018-06-29T06:21:59.592Z,101530.14
2018-06-29T06:24:27.973Z,101528.91
2018-06-29T06:26:57.169Z,101518.74
2018-06-29T06:29:25.597Z,101531.06
2018-06-29T06:31:54.022Z,101537.23
2018-06-29T06:34:22.553Z,101535.12
2018-06-29T06:36:50.985Z,101541.81
2018-06-29T06:39:19.417Z,101533.95
2018-06-29T06:41:48.236Z,101543.23
2018-06-29T06:44:16.731Z,101536.59
2018-06-29T06:46:45.182Z,101550.79
2018-06-29T06:49:14.133Z,101540.44
2018-06-29T06:51:42.561Z,101537.91
2018-06-29T06:54:10.990Z,101545.47
2018-06-29T06:56:39.798Z,101547.65
2018-06-29T06:59:08.221Z,101544.14
2018-06-29T07:01:36.677Z,101553.40
2018-06-29T07:04:05.865Z,101552.08
2018-06-29T07:06:34.286Z,101545.87
2018-06-29T07:09:02.725Z,101552.08
2018-06-29T07:11:31.623Z,101555.64
2018-06-29T07:14:00.217Z,101557.88
2018-06-29T07:16:28.720Z,101558.06
2018-06-29T07:18:57.693Z,101561.28
2018-06-29T07:21:26.351Z,101564.88
2018-06-29T07:23:54.912Z,101555.30
2018-06-29T07:26:23.470Z,101571.22
2018-06-29T07:28:52.134Z,101574.03
2018-06-29T07:31:20.625Z,101566.59
2018-06-29T07:33:49.301Z,101558.75
2018-06-29T07:36:18.413Z,101565.83
2018-06-29T07:38:46.841Z,101565.86
2018-06-29T07:41:15.609Z,101561.51
2018-06-29T07:43:44.569Z,101574.52
2018-06-29T07:46:13.014Z,101577.36
2018-06-29T07:48:41.919Z,101573.98
2018-06-29T07:51:10.486Z,101567.12
2018-06-29T07:53:38.909Z,101569.06
2018-06-29T07:56:07.660Z,101564.94
2018-06-29T07:58:36.226Z,101563.80
2018-06-29T08:01:06.248Z,101567.88
2018-06-29T08:03:35.757Z,101578.50
2018-06-29T08:06:05.073Z,101575.94
2018-06-29T08:08:33.508Z,101577.25
2018-06-29T08:11:02.058Z,101585.72
2018-06-29T08:13:31.215Z,101581.75
2018-06-29T08:15:59.869Z,101584.69
2018-06-29T08:18:28.687Z,101592.48
2018-06-29T08:20:57.739Z,101602.95
2018-06-29T08:23:33.613Z,101589.96
2018-06-29T08:26:14.368Z,101609.94
2018-06-29T08:28:43.319Z,101604.03
2018-06-29T08:31:13.021Z,101603.19
2018-06-29T08:33:41.469Z,101600.67
2018-06-29T08:36:10.291Z,101609.48
2018-06-29T08:38:39.175Z,101604.09
2018-06-29T08:41:07.952Z,101613.66
2018-06-29T08:43:36.593Z,101617.22
2018-06-29T08:46:05.457Z,101616.45
2018-06-29T08:48:33.965Z,101613.78
2018-06-29T08:51:02.678Z,101617.37
2018-06-29T08:53:32.494Z,101612.17
2018-06-29T08:56:01.883Z,101619.23
2018-06-29T08:58:31.226Z,101615.64
2018-06-29T09:01:00.509Z,101617.98
2018-06-29T09:03:28.961Z,101616.54
2018-06-29T09:05:57.475Z,101611.03
2018-06-29T09:08:26.358Z,101611.14
2018-06-29T09:10:54.821Z,101616.50
2018-06-29T09:13:23.342Z,101614.33
2018-06-29T09:15:52.136Z,101612.45
2018-06-29T09:18:20.693Z,101606.71
2018-06-29T09:20:49.493Z,101613.48
2018-06-29T09:23:18.158Z,101606.53
2018-06-29T09:25:46.622Z,101614.55
2018-06-29T09:28:15.206Z,101603.66
2018-06-29T09:30:43.910Z,101600.94
2018-06-29T09:33:12.706Z,101609.16
2018-06-29T09:35:42.107Z,101607.42
2018-06-29T09:38:10.882Z,101620.70
2018-06-29T09:40:39.312Z,101616.60
2018-06-29T09:43:08.269Z,101626.16
2018-06-29T09:45:36.962Z,101620.63
2018-06-29T09:48:05.679Z,101614.99
2018-06-29T09:50:34.396Z,101629.41
2018-06-29T09:53:02.985Z,101620.19
2018-06-29T09:55:31.554Z,101625.56
2018-06-29T09:58:00.249Z,101603.73
2018-06-29T10:00:30.617Z,101606.44
2018-06-29T10:02:59.631Z,101615.58
2018-06-29T10:05:28.590Z,101611.40
2018-06-29T10:07:57.516Z,101621.01
2018-06-29T10:10:25.985Z,101614.70
2018-06-29T10:12:54.492Z,101619.39
2018-06-29T10:15:23.461Z,101615.14
2018-06-29T10:17:51.900Z,101616.65
2018-06-29T10:20:20.506Z,101624.24
2018-06-29T10:22:49.088Z,101622.94
2018-06-29T10:25:17.732Z,101621.19
2018-06-29T10:27:46.362Z,101626.00
2018-06-29T10:30:15.238Z,101614.62
2018-06-29T10:32:44.125Z,101489.39
2018-06-29T10:35:13.338Z,101610.42
2018-06-29T10:37:41.989Z,101620.89
2018-06-29T10:40:11.991Z,101610.47
2018-06-29T10:42:42.075Z,101604.98
2018-06-29T10:45:12.093Z,101615.09
2018-06-29T10:47:40.534Z,101615.73
2018-06-29T10:50:09.541Z,101617.91
2018-06-29T10:52:38.005Z,101609.87
2018-06-29T10:55:06.599Z,101618.11
2018-06-29T10:57:35.060Z,101614.28
2018-06-29T11:00:03.660Z,101612.54
2018-06-29T11:02:32.232Z,101599.14
2018-06-29T11:05:01.918Z,101603.16
2018-06-29T11:07:30.404Z,101605.55
2018-06-29T11:09:59.040Z,101603.11
2018-06-29T11:12:27.589Z,101604.42
2018-06-29T11:14:59.641Z,101606.23
2018-06-29T11:17:29.006Z,101605.50
2018-06-29T11:19:57.433Z,101620.98
2018-06-29T11:22:26.163Z,101609.98
2018-06-29T11:24:55.214Z,101614.70
2018-06-29T11:27:23.727Z,101605.79
2018-06-29T11:29:52.152Z,101602.94
2018-06-29T11:32:21.297Z,101614.11
2018-06-29T11:34:49.848Z,101619.09
2018-06-29T11:37:18.506Z,101611.34
2018-06-29T11:39:47.445Z,101590.00
2018-06-29T11:42:15.873Z,101628.72
2018-06-29T11:44:44.310Z,101632.14
2018-06-29T11:47:13.198Z,101637.56
2018-06-29T11:49:41.979Z,101635.36
2018-06-29T11:52:10.457Z,101633.69
2018-06-29T11:54:39.242Z,101627.64
2018-06-29T11:57:07.687Z,101632.12
2018-06-29T11:59:36.137Z,101629.08
2018-06-29T12:02:05.329Z,101632.68
2018-06-29T12:04:34.017Z,101617.90
2018-06-29T12:07:02.475Z,101625.50
2018-06-29T12:09:31.166Z,101624.16
2018-06-29T12:11:59.593Z,101620.80
2018-06-29T12:14:28.047Z,101620.88
2018-06-29T12:16:56.682Z,101625.08
2018-06-29T12:19:25.166Z,101611.72
2018-06-29T12:21:53.593Z,101618.19
2018-06-29T12:24:22.469Z,101610.13
2018-06-29T12:26:50.901Z,101606.49
2018-06-29T12:29:19.349Z,101613.00
2018-06-29T12:31:48.501Z,101606.95
2018-06-29T12:34:16.906Z,101610.21
2018-06-29T12:36:45.425Z,101608.78
2018-06-29T12:39:14.733Z,101619.23
2018-06-29T12:41:43.497Z,101620.70
2018-06-29T12:44:12.020Z,101623.75
2018-06-29T12:46:40.662Z,101622.95
2018-06-29T12:49:09.097Z,101621.52
2018-06-29T12:51:37.701Z,101612.49
2018-06-29T12:54:06.969Z,101609.45
2018-06-29T12:56:35.600Z,101620.97
2018-06-29T12:59:04.090Z,101620.80
2018-06-29T13:01:32.930Z,101632.69
2018-06-29T13:04:01.607Z,101631.17
2018-06-29T13:06:30.183Z,101626.33
2018-06-29T13:08:59.249Z,101625.19
2018-06-29T13:11:28.654Z,101623.03
2018-06-29T13:13:57.090Z,101623.27
2018-06-29T13:16:25.849Z,101639.39
2018-06-29T13:18:54.628Z,101622.23
2018-06-29T13:21:23.105Z,101625.24
2018-06-29T13:23:52.003Z,101631.27
2018-06-29T13:26:21.138Z,101630.10
2018-06-29T13:28:49.653Z,101639.46
2018-06-29T13:31:18.252Z,101618.78
2018-06-29T13:33:47.113Z,101632.20
2018-06-29T13:36:15.599Z,101637.73
2018-06-29T13:38:44.333Z,101630.77
2018-06-29T13:41:13.010Z,101643.91
2018-06-29T13:43:41.453Z,101645.14
2018-06-29T13:46:10.139Z,101645.41
2018-06-29T13:48:38.668Z,101644.08
2018-06-29T13:51:07.161Z,101636.95
2018-06-29T13:53:35.685Z,101636.95
2018-06-29T13:56:04.330Z,101638.92
2018-06-29T13:58:32.829Z,101636.84
2018-06-29T14:01:01.394Z,101639.02
2018-06-29T14:03:30.057Z,101639.43
2018-06-29T14:05:58.501Z,101644.08
2018-06-29T14:08:27.145Z,101645.14
2018-06-29T14:10:55.826Z,101644.52
2018-06-29T14:13:24.255Z,101645.02
2018-06-29T14:15:53.182Z,101655.19
2018-06-29T14:18:21.985Z,101648.63
2018-06-29T14:20:50.709Z,101648.88
2018-06-29T14:23:19.265Z,101651.34
2018-06-29T14:25:47.773Z,101643.42
2018-06-29T14:28:16.427Z,101634.74
2018-06-29T14:30:45.196Z,101635.61
2018-06-29T14:33:14.031Z,101638.52
2018-06-29T14:35:42.533Z,101646.46
2018-06-29T14:38:11.358Z,101653.30
2018-06-29T14:40:39.787Z,101650.95
2018-06-29T14:43:08.539Z,101661.48
2018-06-29T14:45:37.048Z,101656.19
2018-06-29T14:48:06.014Z,101654.06
2018-06-29T14:50:35.243Z,101649.20
2018-06-29T14:53:03.753Z,101657.45
2018-06-29T14:55:32.570Z,101627.39
2018-06-29T14:58:01.878Z,101650.77
2018-06-29T15:00:31.962Z,101648.34
2018-06-29T15:03:01.349Z,101656.07
2018-06-29T15:05:30.081Z,101655.95
2018-06-29T15:07:58.714Z,101653.98
2018-06-29T15:10:27.215Z,101645.08
2018-06-29T15:12:55.650Z,101646.34
2018-06-29T15:15:24.132Z,101645.31
2018-06-29T15:17:52.770Z,101637.40
2018-06-29T15:20:21.332Z,101635.08
2018-06-29T15:22:50.055Z,101636.28
2018-06-29T15:25:18.600Z,101640.37
2018-06-29T15:27:47.069Z,101638.20
2018-06-29T15:30:15.731Z,101635.30
2018-06-29T15:32:44.242Z,101638.02
2018-06-29T15:35:12.929Z,101625.25
2018-06-29T15:37:41.433Z,101626.02
2018-06-29T15:40:10.031Z,101619.58
2018-06-29T15:42:38.997Z,101623.14
2018-06-29T15:45:07.781Z,101636.34
2018-06-29T15:47:36.310Z,101633.83
2018-06-29T15:50:05.221Z,101651.63
2018-06-29T15:52:33.949Z,101648.00
2018-06-29T15:55:02.454Z,101648.06
2018-06-29T15:57:31.933Z,101653.92
2018-06-29T16:00:01.162Z,101640.50
2018-06-29T16:02:29.617Z,101641.47
2018-06-29T16:04:58.085Z,101646.97
2018-06-29T16:07:26.641Z,101654.50
2018-06-29T16:09:55.439Z,101655.91
2018-06-29T16:12:23.940Z,101629.18
2018-06-29T16:14:52.393Z,101657.33
2018-06-29T16:17:20.904Z,101654.66
2018-06-29T16:19:49.861Z,101660.97
2018-06-29T16:22:18.346Z,101660.98
2018-06-29T16:24:46.813Z,101668.77
2018-06-29T16:27:15.301Z,101676.20
2018-06-29T16:29:44.229Z,101679.48
2018-06-29T16:32:12.837Z,101677.87
2018-06-29T16:34:41.281Z,101681.98
2018-06-29T16:37:09.763Z,101684.04
2018-06-29T16:39:38.222Z,101683.05
2018-06-29T16:42:06.698Z,101681.33
2018-06-29T16:44:35.212Z,101681.64
2018-06-29T16:47:04.208Z,101680.55
2018-06-29T16:49:32.678Z,101676.52
2018-06-29T16:52:01.971Z,101679.45
2018-06-29T16:54:31.078Z,101676.89
2018-06-29T16:56:59.769Z,101681.05
2018-06-29T16:59:28.397Z,101688.23
2018-06-29T17:01:57.016Z,101682.06
2018-06-29T17:04:25.877Z,101690.45
2018-06-29T17:06:54.346Z,101688.61
2018-06-29T17:09:22.983Z,101695.17
2018-06-29T17:11:51.606Z,101699.53
2018-06-29T17:14:20.281Z,101695.42
2018-06-29T17:16:48.802Z,101689.64
2018-06-29T17:19:24.135Z,101699.81
2018-06-29T17:21:53.041Z,101704.19
2018-06-29T17:24:21.482Z,101693.53
2018-06-29T17:26:50.311Z,101704.13
2018-06-29T17:29:18.787Z,101703.21
2018-06-29T17:31:47.237Z,101700.94
2018-06-29T17:34:16.110Z,101711.03
2018-06-29T17:36:44.662Z,101703.88
2018-06-29T17:39:13.101Z,101698.95
2018-06-29T17:41:41.809Z,101702.45
2018-06-29T17:44:10.349Z,101705.03
2018-06-29T17:46:39.055Z,101695.59
2018-06-29T17:49:07.961Z,101702.18
2018-06-29T17:51:36.510Z,101697.22
2018-06-29T17:54:05.035Z,101701.94
2018-06-29T17:56:33.844Z,101708.80
2018-06-29T17:59:02.397Z,101713.49
2018-06-29T18:01:30.817Z,101713.30
2018-06-29T18:03:59.670Z,101711.78
2018-06-29T18:06:28.237Z,101715.66
2018-06-29T18:08:56.713Z,101716.88
2018-06-29T18:11:25.358Z,101729.17
2018-06-29T18:13:53.994Z,101729.22
2018-06-29T18:16:22.445Z,101736.72
2018-06-29T18:18:51.295Z,101740.69
2018-06-29T18:21:19.825Z,101733.52
2018-06-29T18:23:48.241Z,101735.28
2018-06-29T18:26:16.866Z,101727.73
2018-06-29T18:28:45.509Z,101732.52
2018-06-29T18:31:14.033Z,101735.98
2018-06-29T18:33:43.306Z,101738.13
2018-06-29T18:36:12.403Z,101735.84
2018-06-29T18:38:40.825Z,101733.12
2018-06-29T18:41:09.401Z,101737.89
2018-06-29T18:43:37.909Z,101745.76
2018-06-29T18:46:06.515Z,101742.63
2018-06-29T18:48:35.238Z,101737.28
2018-06-29T18:51:04.042Z,101735.42
2018-06-29T18:53:32.571Z,101747.67
2018-06-29T18:56:02.126Z,101742.30
2018-06-29T18:58:30.597Z,101744.43
2018-06-29T19:00:59.337Z,101751.94
2018-06-29T19:03:28.061Z,101744.31
2018-06-29T19:05:56.761Z,101746.05
2018-06-29T19:08:25.317Z,101749.02
2018-06-29T19:10:53.877Z,101751.14
2018-06-29T19:13:22.417Z,101754.11
2018-06-29T19:15:51.001Z,101753.59
2018-06-29T19:18:19.554Z,101752.67
2018-06-29T19:20:47.989Z,101755.72
2018-06-29T19:23:16.609Z,101760.06
2018-06-29T19:25:45.394Z,101762.22
2018-06-29T19:28:13.872Z,101759.98
2018-06-29T19:30:42.400Z,101762.63
2018-06-29T19:33:11.220Z,101764.81
2018-06-29T19:35:39.871Z,101768.72
2018-06-29T19:38:08.683Z,101769.52
2018-06-29T19:40:37.626Z,101775.19
2018-06-29T19:43:06.093Z,101777.34
2018-06-29T19:45:34.932Z,101778.07
2018-06-29T19:48:03.681Z,101451.12
2018-06-29T19:50:32.126Z,101775.70
2018-06-29T19:53:01.796Z,101769.82
2018-06-29T19:55:30.854Z,101776.77
2018-06-29T19:57:59.573Z,101640.51
2018-06-29T20:00:29.045Z,101781.89
2018-06-29T20:02:57.586Z,101786.61
2018-06-29T20:05:26.097Z,101786.51
2018-06-29T20:07:54.901Z,101782.44
2018-06-29T20:10:23.699Z,101785.95
2018-06-29T20:12:52.409Z,101789.87
2018-06-29T20:15:21.032Z,101783.77
2018-06-29T20:17:49.729Z,101787.73
2018-06-29T20:20:18.268Z,101785.91
2018-06-29T20:22:49.811Z,101786.30
2018-06-29T20:25:18.405Z,101786.66
2018-06-29T20:27:47.014Z,101788.77
2018-06-29T20:30:15.486Z,101793.20
2018-06-29T20:32:43.993Z,101792.70
2018-06-29T20:35:12.427Z,101790.38
2018-06-29T20:37:40.858Z,101789.42
2018-06-29T20:40:10.299Z,101788.02
2018-06-29T20:42:39.016Z,101787.56
2018-06-29T20:45:08.069Z,101792.38
2018-06-29T20:47:36.498Z,101791.91
2018-06-29T20:50:05.930Z,101797.59
2018-06-29T20:52:34.809Z,101790.45
2018-06-29T20:55:03.436Z,101799.20
2018-06-29T20:57:31.897Z,101808.45
2018-06-29T21:00:00.357Z,101800.95
2018-06-29T21:02:28.969Z,101806.63
2018-06-29T21:04:57.462Z,101800.91
2018-06-29T21:07:25.949Z,101803.01
2018-06-29T21:09:54.510Z,101800.30
2018-06-29T21:12:23.630Z,101801.97
2018-06-29T21:14:52.178Z,101800.61
2018-06-29T21:17:21.009Z,101796.61
2018-06-29T21:19:49.723Z,101799.64
2018-06-29T21:22:18.181Z,101803.13
2018-06-29T21:24:46.593Z,101798.63
2018-06-29T21:27:15.727Z,101806.95
2018-06-29T21:29:44.688Z,101810.87
2018-06-29T21:32:13.293Z,101802.48
2018-06-29T21:34:41.838Z,101811.72
2018-06-29T21:37:10.344Z,101813.00
2018-06-29T21:39:39.082Z,101817.35
2018-06-29T21:42:08.102Z,101819.53
2018-06-29T21:44:36.556Z,101816.38
2018-06-29T21:47:05.309Z,101819.45
2018-06-29T21:49:33.741Z,101817.66
2018-06-29T21:52:02.202Z,101819.84
2018-06-29T21:54:31.258Z,101823.33
2018-06-29T21:57:00.281Z,101825.55
2018-06-29T21:59:28.793Z,101818.47
2018-06-29T22:01:57.417Z,101822.78
2018-06-29T22:04:25.930Z,101820.95
2018-06-29T22:06:54.436Z,101828.33
2018-06-29T22:09:22.988Z,101825.06
2018-06-29T22:11:51.602Z,101827.11
2018-06-29T22:14:20.094Z,101832.22
2018-06-29T22:16:49.097Z,101828.52
2018-06-29T22:19:17.541Z,101830.98
2018-06-29T22:21:46.024Z,101830.27
2018-06-29T22:24:14.826Z,101829.16
2018-06-29T22:26:43.246Z,101828.47
2018-06-29T22:29:11.721Z,101828.24
2018-06-29T22:31:40.382Z,101829.85
2018-06-29T22:34:08.821Z,101830.05
2018-06-29T22:36:37.369Z,101830.71
2018-06-29T22:39:08.941Z,101836.27
2018-06-29T22:41:37.470Z,101836.98
2018-06-29T22:44:06.397Z,101834.25
2018-06-29T22:46:34.873Z,101838.53
2018-06-29T22:49:03.341Z,101833.64
2018-06-29T22:51:32.056Z,101839.66
2018-06-29T22:54:01.281Z,101840.78
2018-06-29T22:56:29.942Z,101842.33
2018-06-29T22:58:58.625Z,101839.12
2018-06-29T23:01:27.341Z,101837.29
2018-06-29T23:03:56.366Z,101841.61
2018-06-29T23:06:26.026Z,101842.46
2018-06-29T23:08:54.589Z,101838.83
2018-06-29T23:11:23.089Z,101842.69
2018-06-29T23:13:51.538Z,101838.27
2018-06-29T23:16:20.315Z,101838.59
2018-06-29T23:18:48.781Z,101835.38
2018-06-29T23:21:17.285Z,101834.44
2018-06-29T23:23:46.021Z,101835.66
2018-06-29T23:26:14.493Z,101843.03
2018-06-29T23:28:43.204Z,101838.13
2018-06-29T23:31:11.641Z,101838.45
2018-06-29T23:33:40.125Z,101840.56
2018-06-29T23:36:09.273Z,101840.48
2018-06-29T23:38:37.847Z,101839.53
2018-06-29T23:41:06.558Z,101847.33
2018-06-29T23:43:35.790Z,101848.48
2018-06-29T23:46:04.430Z,101841.85
2018-06-29T23:48:33.365Z,101840.95
2018-06-29T23:51:01.781Z,101836.95
2018-06-29T23:53:30.341Z,101843.06
2018-06-29T23:55:58.873Z,101843.36
2018-06-29T23:58:27.290Z,101846.78
